Time;durP1;ratioP1;P1;durP2;ratioP2;P2;SDS_P1;SDS_P2;PMS_P1;PMS_P2;Temp;Humidity;BMP_temperature;BMP_pressure;BME280_temperature;BME280_humidity;BME280_pressure;Samples;Min_cycle;Max_cycle;Signal;HPM_P1;HPM_P2
2021/11/13 00:01:55;;;;;;;163.13;59.07;;;;;;;;;;767187;180;918863;-67
2021/11/13 00:04:21;;;;;;;199.98;59.30;;;;;;;;;;777109;180;917623;-68
2021/11/13 00:06:46;;;;;;;151.60;60.57;;;;;;;;;;770190;179;919342;-68
2021/11/13 00:09:14;;;;;;;175.87;58.85;;;;;;;;;;773862;179;984543;-68
2021/11/13 00:11:38;;;;;;;133.60;55.40;;;;;;;;;;774754;180;918825;-68
2021/11/13 00:14:04;;;;;;;118.37;56.37;;;;;;;;;;765929;180;919093;-68
2021/11/13 00:16:32;;;;;;;162.97;60.70;;;;;;;;;;767846;181;918777;-68
2021/11/13 00:18:58;;;;;;;178.37;63.10;;;;;;;;;;771835;180;919477;-68
2021/11/13 00:21:23;;;;;;;217.13;63.47;;;;;;;;;;776340;179;919082;-68
2021/11/13 00:23:49;;;;;;;171.57;60.93;;;;;;;;;;764931;180;919137;-68
2021/11/13 00:26:15;;;;;;;148.33;56.90;;;;;;;;;;768485;181;919817;-68
2021/11/13 00:28:41;;;;;;;195.53;64.73;;;;;;;;;;776970;180;918835;-68
2021/11/13 00:31:07;;;;;;;129.70;57.23;;;;;;;;;;773195;180;919150;-68
2021/11/13 00:33:33;;;;;;;131.37;55.28;;;;;;;;;;767282;179;919034;-68
2021/11/13 00:35:59;;;;;;;138.17;58.00;;;;;;;;;;773407;180;918738;-68
2021/11/13 00:38:24;;;;;;;138.27;57.30;;;;;;;;;;767150;181;919358;-68
2021/11/13 00:40:50;;;;;;;146.02;57.05;;;;;;;;;;769463;179;920303;-68
2021/11/13 00:43:19;;;;;;;178.62;65.60;;;;;;;;;;771916;180;919702;-67
2021/11/13 00:45:43;;;;;;;176.97;61.53;;;;;;;;;;765650;180;919503;-68
2021/11/13 00:48:09;;;;;;;160.07;58.93;;;;;;;;;;761378;180;918903;-68
2021/11/13 00:50:34;;;;;;;168.60;60.80;;;;;;;;;;762310;182;1343221;-69
2021/11/13 00:53:00;;;;;;;262.87;65.27;;;;;;;;;;765777;182;1020685;-68
2021/11/13 00:55:26;;;;;;;212.50;64.20;;;;;;;;;;761882;183;918351;-68
2021/11/13 00:57:52;;;;;;;326.40;79.50;;;;;;;;;;748668;183;920019;-71
2021/11/13 01:00:18;;;;;;;268.87;71.03;;;;;;;;;;752748;183;917757;-68
2021/11/13 01:02:44;;;;;;;278.47;67.17;;;;;;;;;;759203;182;918691;-70
2021/11/13 01:05:10;;;;;;;205.87;66.87;;;;;;;;;;766150;179;919139;-68
2021/11/13 01:07:36;;;;;;;240.00;68.73;;;;;;;;;;760464;184;918188;-68
2021/11/13 01:10:01;;;;;;;221.87;69.90;;;;;;;;;;752981;182;918660;-69
2021/11/13 01:12:27;;;;;;;249.10;73.47;;;;;;;;;;755355;183;919080;-68
2021/11/13 01:14:53;;;;;;;282.33;75.70;;;;;;;;;;757359;183;918370;-70
2021/11/13 01:17:19;;;;;;;263.42;75.45;;;;;;;;;;768074;181;919187;-68
2021/11/13 01:19:45;;;;;;;342.50;79.70;;;;;;;;;;763510;181;927914;-69
2021/11/13 01:22:11;;;;;;;357.30;80.13;;;;;;;;;;769888;180;922317;-69
2021/11/13 01:24:37;;;;;;;288.77;78.30;;;;;;;;;;776525;180;916911;-69
2021/11/13 01:27:03;;;;;;;306.08;81.63;;;;;;;;;;769383;180;914539;-68
2021/11/13 01:29:29;;;;;;;305.95;82.93;;;;;;;;;;767180;180;1019976;-69
2021/11/13 01:31:54;;;;;;;223.40;70.20;;;;;;;;;;773747;180;921465;-69
2021/11/13 01:34:20;;;;;;;321.40;77.03;;;;;;;;;;770102;180;916425;-69
2021/11/13 01:36:46;;;;;;;354.70;92.27;;;;;;;;;;767914;180;916276;-72
2021/11/13 01:39:12;;;;;;;376.23;82.63;;;;;;;;;;766722;180;1012555;-69
2021/11/13 01:41:38;;;;;;;321.93;74.47;;;;;;;;;;781796;178;914333;-69
2021/11/13 01:44:06;;;;;;;345.03;75.23;;;;;;;;;;766108;181;919298;-69
2021/11/13 01:46:31;;;;;;;349.80;73.80;;;;;;;;;;770470;180;919580;-67
2021/11/13 01:48:57;;;;;;;272.27;65.03;;;;;;;;;;771239;180;944238;-65
2021/11/13 01:51:24;;;;;;;334.80;62.70;;;;;;;;;;771008;180;923837;-69
2021/11/13 01:53:50;;;;;;;151.67;48.10;;;;;;;;;;774733;179;915804;-69
2021/11/13 01:56:19;;;;;;;212.47;52.50;;;;;;;;;;778002;179;915981;-69
2021/11/13 01:58:42;;;;;;;309.60;61.40;;;;;;;;;;764933;180;919174;-66
2021/11/13 02:01:09;;;;;;;226.23;51.07;;;;;;;;;;761447;180;937300;-66
2021/11/13 02:03:34;;;;;;;290.73;59.40;;;;;;;;;;764319;180;919448;-69
2021/11/13 02:06:00;;;;;;;301.90;57.17;;;;;;;;;;770769;181;918207;-69
2021/11/13 02:08:26;;;;;;;383.63;58.47;;;;;;;;;;775941;179;1020642;-68
2021/11/13 02:10:52;;;;;;;285.38;57.83;;;;;;;;;;766449;181;918913;-69
2021/11/13 02:13:18;;;;;;;242.73;54.37;;;;;;;;;;777119;180;917912;-72
2021/11/13 02:15:44;;;;;;;218.70;50.53;;;;;;;;;;772478;180;919324;-69
2021/11/13 02:18:10;;;;;;;142.87;45.37;;;;;;;;;;766088;181;1021163;-69
2021/11/13 02:20:36;;;;;;;111.73;42.30;;;;;;;;;;772204;180;918702;-69
2021/11/13 02:23:03;;;;;;;101.43;40.77;;;;;;;;;;766915;180;905903;-69
2021/11/13 02:25:29;;;;;;;100.13;40.80;;;;;;;;;;761560;181;919524;-70
2021/11/13 02:27:55;;;;;;;107.10;45.10;;;;;;;;;;770258;180;915386;-69
2021/11/13 02:30:21;;;;;;;135.73;47.53;;;;;;;;;;774423;180;915041;-69
2021/11/13 02:32:47;;;;;;;158.73;46.87;;;;;;;;;;773261;180;916606;-69
2021/11/13 02:35:13;;;;;;;147.50;48.00;;;;;;;;;;773151;180;918932;-69
2021/11/13 02:37:38;;;;;;;97.57;42.33;;;;;;;;;;773538;180;918532;-69
2021/11/13 02:40:05;;;;;;;94.77;40.70;;;;;;;;;;767217;180;918335;-69
2021/11/13 02:42:30;;;;;;;92.73;43.27;;;;;;;;;;766078;181;918762;-69
2021/11/13 02:44:56;;;;;;;84.77;41.83;;;;;;;;;;776215;180;918994;-69
2021/11/13 02:47:22;;;;;;;91.53;41.47;;;;;;;;;;768736;180;919246;-69
2021/11/13 02:49:48;;;;;;;86.73;42.30;;;;;;;;;;766474;180;918436;-69
2021/11/13 02:52:14;;;;;;;87.62;44.30;;;;;;;;;;768567;180;918767;-69
2021/11/13 02:54:43;;;;;;;79.87;41.33;;;;;;;;;;770174;181;917728;-69
2021/11/13 02:57:09;;;;;;;92.07;43.33;;;;;;;;;;763884;181;919053;-69
2021/11/13 02:59:35;;;;;;;88.43;42.87;;;;;;;;;;765928;181;917650;-69
2021/11/13 03:02:01;;;;;;;88.93;40.27;;;;;;;;;;776531;180;918371;-71
2021/11/13 03:04:27;;;;;;;87.27;42.23;;;;;;;;;;772609;178;918389;-70
2021/11/13 03:06:52;;;;;;;78.90;39.53;;;;;;;;;;761657;181;918639;-69
2021/11/13 03:09:18;;;;;;;82.13;40.50;;;;;;;;;;775664;180;918914;-69
2021/11/13 03:11:44;;;;;;;92.07;44.67;;;;;;;;;;764132;180;918270;-69
2021/11/13 03:14:10;;;;;;;93.67;43.80;;;;;;;;;;763692;181;919418;-69
2021/11/13 03:16:36;;;;;;;82.17;38.97;;;;;;;;;;771415;180;918974;-69
2021/11/13 03:19:02;;;;;;;79.50;41.30;;;;;;;;;;774765;180;918957;-69
2021/11/13 03:21:28;;;;;;;78.13;38.17;;;;;;;;;;760900;180;917521;-69
2021/11/13 03:23:53;;;;;;;69.63;38.00;;;;;;;;;;769442;180;918322;-70
2021/11/13 03:26:19;;;;;;;78.18;39.72;;;;;;;;;;770498;180;920701;-69
2021/11/13 03:28:47;;;;;;;72.83;39.33;;;;;;;;;;764944;179;919076;-69
2021/11/13 03:31:13;;;;;;;74.73;36.67;;;;;;;;;;765769;179;919101;-69
2021/11/13 03:33:39;;;;;;;97.27;44.73;;;;;;;;;;772715;181;918526;-69
2021/11/13 03:36:05;;;;;;;95.50;42.57;;;;;;;;;;772412;180;917125;-68
2021/11/13 03:38:30;;;;;;;87.70;40.42;;;;;;;;;;768743;180;920018;-68
2021/11/13 03:40:56;;;;;;;88.87;41.70;;;;;;;;;;769009;180;919909;-68
2021/11/13 03:43:22;;;;;;;99.27;41.50;;;;;;;;;;774996;180;918591;-68
2021/11/13 03:45:48;;;;;;;114.50;46.23;;;;;;;;;;763064;180;919688;-68
2021/11/13 03:48:14;;;;;;;112.65;45.25;;;;;;;;;;761115;180;1250348;-68
2021/11/13 03:50:40;;;;;;;107.40;43.80;;;;;;;;;;775100;180;919063;-68
2021/11/13 03:53:06;;;;;;;117.37;42.60;;;;;;;;;;766501;180;919434;-68
2021/11/13 03:55:32;;;;;;;104.03;40.33;;;;;;;;;;764439;180;918687;-69
2021/11/13 03:57:58;;;;;;;118.97;41.27;;;;;;;;;;773508;181;918372;-68
2021/11/13 04:00:25;;;;;;;161.77;44.10;;;;;;;;;;767302;180;1020386;-68
2021/11/13 04:02:51;;;;;;;76.57;40.50;;;;;;;;;;766757;180;920110;-68
2021/11/13 04:05:16;;;;;;;75.53;36.03;;;;;;;;;;769300;180;918070;-68
2021/11/13 04:07:42;;;;;;;89.87;42.40;;;;;;;;;;774320;180;918402;-69
2021/11/13 04:10:08;;;;;;;87.70;40.90;;;;;;;;;;768811;180;919095;-68
2021/11/13 04:12:34;;;;;;;80.77;44.27;;;;;;;;;;769595;180;918490;-66
2021/11/13 04:15:00;;;;;;;86.53;39.93;;;;;;;;;;770981;179;919596;-65
2021/11/13 04:17:26;;;;;;;77.77;39.10;;;;;;;;;;764293;180;918682;-66
2021/11/13 04:19:52;;;;;;;80.23;38.77;;;;;;;;;;769458;180;919048;-69
2021/11/13 04:22:18;;;;;;;83.57;42.30;;;;;;;;;;772659;180;950275;-69
2021/11/13 04:24:43;;;;;;;77.03;38.70;;;;;;;;;;771864;180;1021382;-69
2021/11/13 04:27:09;;;;;;;73.72;39.17;;;;;;;;;;766021;180;938882;-69
2021/11/13 04:29:35;;;;;;;99.10;43.33;;;;;;;;;;767477;180;919187;-68
2021/11/13 04:32:01;;;;;;;84.40;43.42;;;;;;;;;;766910;180;944075;-69
2021/11/13 04:34:29;;;;;;;103.93;44.17;;;;;;;;;;767238;180;919584;-68
2021/11/13 04:36:54;;;;;;;94.77;45.57;;;;;;;;;;771657;181;918595;-68
2021/11/13 04:39:19;;;;;;;91.47;40.47;;;;;;;;;;773479;180;911495;-69
2021/11/13 04:41:44;;;;;;;95.43;44.40;;;;;;;;;;766593;180;918287;-68
2021/11/13 04:44:10;;;;;;;110.57;46.50;;;;;;;;;;769597;180;918912;-66
2021/11/13 04:46:36;;;;;;;109.07;46.60;;;;;;;;;;770940;180;917147;-66
2021/11/13 04:49:02;;;;;;;109.77;47.47;;;;;;;;;;769596;180;918054;-68
2021/11/13 04:51:28;;;;;;;119.18;47.60;;;;;;;;;;771923;180;918787;-68
2021/11/13 04:53:54;;;;;;;106.40;45.00;;;;;;;;;;770905;180;918356;-67
2021/11/13 04:56:20;;;;;;;124.90;45.63;;;;;;;;;;769202;182;919085;-68
2021/11/13 04:58:46;;;;;;;185.03;48.67;;;;;;;;;;771017;180;918115;-69
2021/11/13 05:01:12;;;;;;;166.33;49.97;;;;;;;;;;763991;181;919190;-68
2021/11/13 05:03:38;;;;;;;197.90;48.10;;;;;;;;;;776289;180;919023;-68
2021/11/13 05:06:04;;;;;;;207.30;50.47;;;;;;;;;;769602;180;919287;-68
2021/11/13 05:08:30;;;;;;;186.17;48.67;;;;;;;;;;772407;180;918277;-68
2021/11/13 05:10:56;;;;;;;194.40;48.60;;;;;;;;;;774888;180;918459;-68
2021/11/13 05:13:22;;;;;;;229.10;49.47;;;;;;;;;;769272;180;919013;-68
2021/11/13 05:15:47;;;;;;;168.18;46.70;;;;;;;;;;770423;180;920685;-68
2021/11/13 05:18:13;;;;;;;115.63;42.67;;;;;;;;;;776773;180;918487;-69
2021/11/13 05:20:39;;;;;;;82.50;38.50;;;;;;;;;;769068;180;943979;-68
2021/11/13 05:23:05;;;;;;;95.40;39.90;;;;;;;;;;769007;180;918309;-67
2021/11/13 05:25:31;;;;;;;99.70;40.70;;;;;;;;;;763722;180;918162;-68
2021/11/13 05:27:57;;;;;;;92.70;38.57;;;;;;;;;;771711;181;916108;-68
2021/11/13 05:30:23;;;;;;;97.83;39.23;;;;;;;;;;768349;180;919339;-68
2021/11/13 05:32:48;;;;;;;103.07;42.20;;;;;;;;;;775532;179;865585;-69
2021/11/13 05:35:14;;;;;;;97.40;42.00;;;;;;;;;;768829;180;918499;-67
2021/11/13 05:37:41;;;;;;;96.20;42.70;;;;;;;;;;767274;180;918351;-67
2021/11/13 05:40:07;;;;;;;100.57;42.90;;;;;;;;;;768219;180;918557;-67
2021/11/13 05:42:34;;;;;;;98.07;44.90;;;;;;;;;;773065;180;919034;-68
2021/11/13 05:45:00;;;;;;;105.37;45.93;;;;;;;;;;771986;179;918477;-67
2021/11/13 05:47:25;;;;;;;97.20;40.47;;;;;;;;;;775983;179;918784;-68
2021/11/13 05:49:51;;;;;;;98.47;42.63;;;;;;;;;;771357;180;918184;-67
2021/11/13 05:52:17;;;;;;;121.90;44.50;;;;;;;;;;775296;180;919442;-67
2021/11/13 05:54:42;;;;;;;116.70;43.37;;;;;;;;;;770437;180;919979;-68
2021/11/13 05:57:08;;;;;;;93.77;42.40;;;;;;;;;;771536;180;921565;-68
2021/11/13 05:59:34;;;;;;;98.63;43.13;;;;;;;;;;772888;180;918752;-67
2021/11/13 06:02:05;;;;;;;106.07;43.53;;;;;;;;;;769562;180;907225;-67
2021/11/13 06:04:31;;;;;;;102.50;43.63;;;;;;;;;;762137;180;1634781;-68
2021/11/13 06:06:57;;;;;;;107.60;45.63;;;;;;;;;;768729;180;921449;-68
2021/11/13 06:09:23;;;;;;;88.33;41.07;;;;;;;;;;767473;181;919511;-68
2021/11/13 06:11:48;;;;;;;142.07;45.83;;;;;;;;;;765043;180;884516;-68
2021/11/13 06:14:14;;;;;;;134.53;47.10;;;;;;;;;;770869;180;918138;-67
2021/11/13 06:16:40;;;;;;;149.10;50.33;;;;;;;;;;777925;180;919128;-68
2021/11/13 06:19:06;;;;;;;175.00;47.13;;;;;;;;;;769799;180;949132;-68
2021/11/13 06:21:32;;;;;;;158.00;47.72;;;;;;;;;;767194;180;1015522;-69
2021/11/13 06:23:58;;;;;;;170.77;52.37;;;;;;;;;;773079;180;916134;-69
2021/11/13 06:26:24;;;;;;;191.60;46.27;;;;;;;;;;766722;180;1022402;-68
2021/11/13 06:28:50;;;;;;;205.30;50.90;;;;;;;;;;771192;180;915171;-69
2021/11/13 06:31:16;;;;;;;179.82;49.67;;;;;;;;;;774882;180;916447;-66
2021/11/13 06:33:42;;;;;;;171.53;46.50;;;;;;;;;;776734;179;915632;-67
2021/11/13 06:36:08;;;;;;;196.07;48.63;;;;;;;;;;764757;181;916171;-67
2021/11/13 06:38:33;;;;;;;195.20;46.47;;;;;;;;;;770811;179;914960;-67
2021/11/13 06:40:59;;;;;;;160.03;45.07;;;;;;;;;;776229;179;914751;-68
2021/11/13 06:43:25;;;;;;;174.00;48.67;;;;;;;;;;768622;180;918323;-68
2021/11/13 06:45:51;;;;;;;274.93;56.73;;;;;;;;;;765671;180;1264214;-68
2021/11/13 06:48:17;;;;;;;255.07;52.53;;;;;;;;;;776649;180;919195;-68
2021/11/13 06:50:46;;;;;;;262.83;51.53;;;;;;;;;;770056;180;1019827;-68
2021/11/13 06:53:09;;;;;;;183.27;44.87;;;;;;;;;;769913;180;919317;-68
2021/11/13 06:55:34;;;;;;;234.63;49.47;;;;;;;;;;772573;181;919433;-67
2021/11/13 06:58:01;;;;;;;205.93;41.27;;;;;;;;;;766170;180;918671;-67
2021/11/13 07:00:29;;;;;;;252.30;45.70;;;;;;;;;;772558;179;919670;-66
2021/11/13 07:02:54;;;;;;;131.63;34.87;;;;;;;;;;766233;180;919342;-68
2021/11/13 07:05:19;;;;;;;163.40;40.33;;;;;;;;;;772396;181;919732;-68
2021/11/13 07:07:45;;;;;;;226.07;43.53;;;;;;;;;;771560;180;920296;-68
2021/11/13 07:10:11;;;;;;;218.93;44.17;;;;;;;;;;768163;180;918938;-66
2021/11/13 07:12:37;;;;;;;155.43;43.80;;;;;;;;;;774361;180;919143;-66
2021/11/13 07:15:04;;;;;;;237.10;49.57;;;;;;;;;;768970;180;919286;-65
2021/11/13 07:17:29;;;;;;;225.05;42.62;;;;;;;;;;769971;180;919625;-67
2021/11/13 07:19:55;;;;;;;190.33;47.10;;;;;;;;;;774725;180;917661;-67
2021/11/13 07:22:21;;;;;;;196.13;48.07;;;;;;;;;;768086;179;920282;-66
2021/11/13 07:24:47;;;;;;;141.93;39.33;;;;;;;;;;756694;179;2229611;-66
2021/11/13 07:27:13;;;;;;;194.23;48.10;;;;;;;;;;771017;180;918599;-65
2021/11/13 07:29:45;;;;;;;210.50;50.67;;;;;;;;;;774291;179;916765;-65
2021/11/13 07:32:09;;;;;;;185.60;51.50;;;;;;;;;;766223;181;919225;-65
2021/11/13 07:34:34;;;;;;;222.47;55.10;;;;;;;;;;771524;180;918144;-63
2021/11/13 07:37:00;;;;;;;296.90;56.57;;;;;;;;;;773710;180;917351;-62
2021/11/13 07:39:26;;;;;;;244.73;54.37;;;;;;;;;;770234;180;917802;-61
2021/11/13 07:41:52;;;;;;;202.40;49.23;;;;;;;;;;769461;180;918031;-60
2021/11/13 07:44:18;;;;;;;201.97;49.77;;;;;;;;;;769634;180;918989;-60
2021/11/13 07:46:44;;;;;;;170.57;45.77;;;;;;;;;;774477;180;628688;-61
2021/11/13 07:49:10;;;;;;;196.43;50.67;;;;;;;;;;764706;181;887701;-61
2021/11/13 07:51:35;;;;;;;167.03;45.37;;;;;;;;;;770435;180;918591;-61
2021/11/13 07:54:02;;;;;;;162.73;46.67;;;;;;;;;;785024;179;919143;-62
2021/11/13 07:56:27;;;;;;;186.45;51.13;;;;;;;;;;772373;179;932800;-60
2021/11/13 07:58:53;;;;;;;182.90;45.70;;;;;;;;;;766425;181;919189;-61
2021/11/13 08:01:19;;;;;;;172.83;51.20;;;;;;;;;;775893;180;918740;-61
2021/11/13 08:03:46;;;;;;;205.90;51.63;;;;;;;;;;771930;180;918455;-61
2021/11/13 08:06:11;;;;;;;235.15;51.83;;;;;;;;;;775871;179;919011;-63
2021/11/13 08:08:37;;;;;;;216.60;53.90;;;;;;;;;;772571;180;918406;-62
2021/11/13 08:11:03;;;;;;;198.00;52.37;;;;;;;;;;767266;180;919544;-63
2021/11/13 08:13:29;;;;;;;175.60;49.33;;;;;;;;;;770898;180;918017;-63
2021/11/13 08:15:55;;;;;;;191.57;54.67;;;;;;;;;;769105;180;915728;-64
2021/11/13 08:18:21;;;;;;;210.60;58.33;;;;;;;;;;741672;187;629592;-66
2021/11/13 08:20:47;;;;;;;161.90;53.13;;;;;;;;;;756908;183;637690;-64
2021/11/13 08:23:12;;;;;;;197.00;55.33;;;;;;;;;;773873;180;626356;-63
2021/11/13 08:25:38;;;;;;;165.73;51.60;;;;;;;;;;776822;180;633485;-63
2021/11/13 08:28:04;;;;;;;177.10;56.07;;;;;;;;;;774703;180;626545;-64
2021/11/13 08:30:30;;;;;;;178.90;54.60;;;;;;;;;;765960;180;1583343;-64
2021/11/13 08:32:56;;;;;;;199.20;57.57;;;;;;;;;;777522;179;635470;-64
2021/11/13 08:35:22;;;;;;;200.20;55.57;;;;;;;;;;766511;180;632015;-64
2021/11/13 08:37:48;;;;;;;198.90;55.07;;;;;;;;;;769079;180;632192;-65
2021/11/13 08:40:14;;;;;;;210.17;60.47;;;;;;;;;;769662;180;629597;-64
2021/11/13 08:42:39;;;;;;;181.13;58.83;;;;;;;;;;777005;180;652940;-64
2021/11/13 08:45:07;;;;;;;232.73;65.47;;;;;;;;;;773077;179;614854;-64
2021/11/13 08:47:31;;;;;;;194.67;56.97;;;;;;;;;;771130;180;628971;-64
2021/11/13 08:49:57;;;;;;;209.53;60.87;;;;;;;;;;773590;180;662321;-63
2021/11/13 08:52:23;;;;;;;194.13;58.13;;;;;;;;;;772885;180;629763;-63
2021/11/13 08:54:49;;;;;;;202.07;58.50;;;;;;;;;;776436;180;639276;-64
2021/11/13 08:57:15;;;;;;;200.93;64.57;;;;;;;;;;772848;180;756559;-64
2021/11/13 08:59:41;;;;;;;180.40;63.70;;;;;;;;;;770756;180;629436;-65
2021/11/13 09:02:09;;;;;;;199.40;60.97;;;;;;;;;;775859;179;631963;-62
2021/11/13 09:04:32;;;;;;;194.50;66.87;;;;;;;;;;771628;179;891445;-63
2021/11/13 09:06:58;;;;;;;189.20;63.43;;;;;;;;;;782555;179;743265;-64
2021/11/13 09:09:24;;;;;;;218.50;69.83;;;;;;;;;;771433;181;911706;-63
2021/11/13 09:11:50;;;;;;;191.13;66.77;;;;;;;;;;775955;180;632340;-63
2021/11/13 09:14:16;;;;;;;181.70;60.33;;;;;;;;;;780423;180;627665;-63
2021/11/13 09:16:42;;;;;;;168.20;59.10;;;;;;;;;;776533;179;914218;-64
2021/11/13 09:19:07;;;;;;;177.70;62.70;;;;;;;;;;774581;180;910632;-63
2021/11/13 09:21:33;;;;;;;166.83;56.23;;;;;;;;;;776174;180;642387;-64
2021/11/13 09:24:00;;;;;;;194.57;55.03;;;;;;;;;;773644;180;625228;-63
2021/11/13 09:26:26;;;;;;;141.73;49.80;;;;;;;;;;773171;180;758980;-63
2021/11/13 09:28:52;;;;;;;113.40;45.40;;;;;;;;;;770626;180;629548;-63
2021/11/13 09:31:18;;;;;;;123.03;43.20;;;;;;;;;;769506;181;687550;-62
2021/11/13 09:33:43;;;;;;;89.20;34.53;;;;;;;;;;773626;180;637959;-63
2021/11/13 09:36:09;;;;;;;115.00;44.30;;;;;;;;;;772757;181;628901;-62
2021/11/13 09:38:35;;;;;;;109.67;45.33;;;;;;;;;;777250;180;628251;-63
2021/11/13 09:41:01;;;;;;;92.20;42.37;;;;;;;;;;774051;180;635834;-62
2021/11/13 09:43:27;;;;;;;98.23;40.07;;;;;;;;;;767875;180;1466287;-63
2021/11/13 09:45:53;;;;;;;80.13;35.83;;;;;;;;;;777574;180;616189;-62
2021/11/13 09:48:19;;;;;;;93.20;39.47;;;;;;;;;;772876;179;635009;-62
2021/11/13 09:50:49;;;;;;;101.57;41.73;;;;;;;;;;771601;180;636582;-63
2021/11/13 09:53:11;;;;;;;97.30;39.50;;;;;;;;;;772639;177;641146;-62
2021/11/13 09:55:37;;;;;;;84.43;41.73;;;;;;;;;;771650;181;633619;-61
2021/11/13 09:58:03;;;;;;;112.60;43.77;;;;;;;;;;760217;182;656390;-62
2021/11/13 10:00:29;;;;;;;96.13;42.17;;;;;;;;;;775035;180;624553;-60
2021/11/13 10:02:55;;;;;;;103.27;43.73;;;;;;;;;;777565;180;632803;-61
2021/11/13 10:05:20;;;;;;;96.93;42.53;;;;;;;;;;767219;180;929421;-62
2021/11/13 10:07:46;;;;;;;105.53;41.97;;;;;;;;;;769945;180;637711;-62
2021/11/13 10:10:13;;;;;;;113.93;46.07;;;;;;;;;;778774;180;622365;-62
2021/11/13 10:12:39;;;;;;;87.77;39.73;;;;;;;;;;775559;180;635472;-62
2021/11/13 10:15:20;;;;;;;91.40;41.00;;;;;;;;;;774213;179;631151;-62
2021/11/13 10:17:46;;;;;;;67.93;35.90;;;;;;;;;;769479;180;626910;-60
2021/11/13 10:20:27;;;;;;;79.37;38.90;;;;;;;;;;776053;179;620158;-62
2021/11/13 10:22:53;;;;;;;107.10;45.73;;;;;;;;;;775947;179;643818;-61
2021/11/13 10:25:18;;;;;;;78.07;41.43;;;;;;;;;;771729;180;623324;-61
2021/11/13 10:27:51;;;;;;;75.23;40.50;;;;;;;;;;776646;180;626182;-61
2021/11/13 10:30:20;;;;;;;93.00;40.07;;;;;;;;;;769840;178;636238;-61
2021/11/13 10:32:52;;;;;;;93.83;42.23;;;;;;;;;;774551;180;653218;-62
2021/11/13 10:35:18;;;;;;;76.07;33.13;;;;;;;;;;775082;180;725965;-61
2021/11/13 10:37:44;;;;;;;83.07;39.47;;;;;;;;;;768973;180;705238;-61
2021/11/13 10:40:10;;;;;;;82.90;39.37;;;;;;;;;;771841;180;635773;-62
2021/11/13 10:42:35;;;;;;;83.00;39.87;;;;;;;;;;775474;180;630985;-62
2021/11/13 10:45:01;;;;;;;73.00;36.53;;;;;;;;;;773682;180;643267;-62
2021/11/13 10:47:29;;;;;;;73.70;37.07;;;;;;;;;;769994;180;634289;-62
2021/11/13 10:49:55;;;;;;;66.37;31.70;;;;;;;;;;777187;180;620437;-63
2021/11/13 10:52:21;;;;;;;70.67;32.07;;;;;;;;;;773922;180;936383;-62
2021/11/13 10:54:48;;;;;;;84.00;39.80;;;;;;;;;;772520;180;621976;-62
2021/11/13 10:57:12;;;;;;;78.93;39.00;;;;;;;;;;770642;180;631814;-61
2021/11/13 10:59:38;;;;;;;68.17;37.20;;;;;;;;;;779986;179;630017;-62
2021/11/13 11:02:05;;;;;;;81.53;37.47;;;;;;;;;;772317;180;619577;-61
2021/11/13 11:04:31;;;;;;;80.27;37.70;;;;;;;;;;772455;180;624643;-62
2021/11/13 11:07:02;;;;;;;69.03;34.80;;;;;;;;;;777046;181;630518;-62
2021/11/13 11:09:28;;;;;;;65.40;33.77;;;;;;;;;;774211;179;626806;-62
2021/11/13 11:11:54;;;;;;;70.93;36.10;;;;;;;;;;769835;180;634679;-62
2021/11/13 11:14:20;;;;;;;54.00;33.10;;;;;;;;;;772331;180;637787;-62
2021/11/13 11:16:46;;;;;;;71.73;37.43;;;;;;;;;;773521;180;629376;-62
2021/11/13 11:19:12;;;;;;;61.07;33.60;;;;;;;;;;772049;180;618800;-62
2021/11/13 11:21:43;;;;;;;74.77;34.87;;;;;;;;;;774209;180;708893;-61
2021/11/13 11:24:26;;;;;;;62.00;33.90;;;;;;;;;;775894;178;627182;-62
2021/11/13 11:26:54;;;;;;;70.50;35.63;;;;;;;;;;784056;179;617936;-67
2021/11/13 11:29:20;;;;;;;73.60;36.10;;;;;;;;;;783652;179;616701;-62
2021/11/13 11:31:45;;;;;;;53.40;29.50;;;;;;;;;;766177;180;639588;-61
2021/11/13 11:34:21;;;;;;;53.77;33.23;;;;;;;;;;774661;180;625704;-62
2021/11/13 11:36:47;;;;;;;73.27;34.40;;;;;;;;;;770691;180;917905;-61
2021/11/13 11:39:13;;;;;;;65.22;33.00;;;;;;;;;;768159;179;919127;-62
2021/11/13 11:41:40;;;;;;;68.47;30.97;;;;;;;;;;773579;180;637521;-63
2021/11/13 11:44:06;;;;;;;64.47;30.03;;;;;;;;;;771631;180;624936;-60
2021/11/13 11:46:32;;;;;;;63.07;33.03;;;;;;;;;;776522;180;629300;-62
2021/11/13 11:48:58;;;;;;;70.70;32.37;;;;;;;;;;772245;180;665107;-62
2021/11/13 11:51:23;;;;;;;61.33;30.30;;;;;;;;;;773382;180;617062;-63
2021/11/13 11:53:49;;;;;;;56.70;30.03;;;;;;;;;;776431;180;617172;-62
2021/11/13 11:56:15;;;;;;;63.80;29.73;;;;;;;;;;774078;180;647392;-62
2021/11/13 11:58:41;;;;;;;78.93;33.97;;;;;;;;;;776234;179;616835;-61
2021/11/13 12:01:09;;;;;;;76.27;30.90;;;;;;;;;;778322;180;627948;-62
2021/11/13 12:03:36;;;;;;;67.53;33.33;;;;;;;;;;772992;179;620728;-61
2021/11/13 12:06:01;;;;;;;80.27;34.63;;;;;;;;;;768758;181;892074;-61
2021/11/13 12:08:27;;;;;;;72.33;33.93;;;;;;;;;;770159;180;619142;-62
2021/11/13 12:10:53;;;;;;;73.83;32.73;;;;;;;;;;776292;180;629818;-63
2021/11/13 12:13:23;;;;;;;74.47;34.93;;;;;;;;;;765929;180;622099;-61
2021/11/13 12:15:53;;;;;;;77.03;35.20;;;;;;;;;;771757;180;624941;-63
2021/11/13 12:18:20;;;;;;;78.33;35.27;;;;;;;;;;770597;180;635530;-62
2021/11/13 12:20:46;;;;;;;69.33;34.10;;;;;;;;;;775273;180;619851;-62
2021/11/13 12:23:14;;;;;;;61.87;30.80;;;;;;;;;;772497;180;635982;-61
2021/11/13 12:25:38;;;;;;;62.40;30.30;;;;;;;;;;770301;180;618849;-62
2021/11/13 12:28:09;;;;;;;67.67;30.00;;;;;;;;;;773557;180;649908;-61
2021/11/13 12:30:42;;;;;;;65.13;30.87;;;;;;;;;;772957;180;630827;-61
2021/11/13 12:33:14;;;;;;;63.30;31.27;;;;;;;;;;772432;180;620837;-61
2021/11/13 12:35:50;;;;;;;69.70;31.10;;;;;;;;;;770745;179;649230;-62
2021/11/13 12:38:22;;;;;;;62.10;31.30;;;;;;;;;;773812;180;634020;-62
2021/11/13 12:40:48;;;;;;;64.80;28.40;;;;;;;;;;779248;179;635334;-60
2021/11/13 12:43:14;;;;;;;51.80;25.17;;;;;;;;;;770363;180;628477;-67
2021/11/13 12:45:42;;;;;;;54.73;26.67;;;;;;;;;;773639;179;646090;-64
2021/11/13 12:48:08;;;;;;;49.20;26.80;;;;;;;;;;772053;180;632938;-62
2021/11/13 12:50:34;;;;;;;59.60;24.40;;;;;;;;;;776891;179;628216;-61
2021/11/13 12:53:00;;;;;;;47.60;22.80;;;;;;;;;;773996;180;634564;-63
2021/11/13 12:55:42;;;;;;;60.33;28.00;;;;;;;;;;770975;180;667691;-61
2021/11/13 12:58:09;;;;;;;48.63;25.37;;;;;;;;;;774110;180;625039;-61
2021/11/13 13:00:35;;;;;;;54.20;26.50;;;;;;;;;;776858;179;622327;-63
2021/11/13 13:03:03;;;;;;;50.60;25.33;;;;;;;;;;772645;180;629934;-60
2021/11/13 13:05:27;;;;;;;44.77;18.67;;;;;;;;;;770911;180;630299;-61
2021/11/13 13:07:53;;;;;;;49.13;25.30;;;;;;;;;;772730;179;630198;-61
2021/11/13 13:10:19;;;;;;;37.27;20.03;;;;;;;;;;775194;180;630926;-61
2021/11/13 13:12:44;;;;;;;50.63;24.23;;;;;;;;;;771746;179;626222;-62
2021/11/13 13:15:11;;;;;;;49.77;24.80;;;;;;;;;;771010;180;617924;-64
2021/11/13 13:17:37;;;;;;;67.77;28.00;;;;;;;;;;774698;180;626321;-61
2021/11/13 13:20:04;;;;;;;49.67;24.07;;;;;;;;;;772757;180;648302;-62
2021/11/13 13:22:30;;;;;;;54.00;26.93;;;;;;;;;;772679;180;650014;-61
2021/11/13 13:24:56;;;;;;;50.83;24.57;;;;;;;;;;774791;180;624909;-62
2021/11/13 13:27:21;;;;;;;51.47;25.93;;;;;;;;;;769327;180;918631;-62
2021/11/13 13:30:07;;;;;;;47.77;25.53;;;;;;;;;;770287;180;918264;-65
2021/11/13 13:32:34;;;;;;;48.97;25.57;;;;;;;;;;771961;180;623486;-60
2021/11/13 13:35:01;;;;;;;58.37;29.87;;;;;;;;;;773474;180;642928;-62
2021/11/13 13:37:28;;;;;;;59.70;26.87;;;;;;;;;;776018;180;645695;-61
2021/11/13 13:39:54;;;;;;;56.93;26.93;;;;;;;;;;774138;179;643083;-61
2021/11/13 13:42:19;;;;;;;50.10;27.53;;;;;;;;;;773862;180;626261;-62
2021/11/13 13:44:45;;;;;;;56.37;27.30;;;;;;;;;;776506;180;626111;-61
2021/11/13 13:47:11;;;;;;;63.23;25.90;;;;;;;;;;772217;180;634229;-61
2021/11/13 13:49:37;;;;;;;56.00;25.60;;;;;;;;;;774120;180;622758;-62
2021/11/13 13:52:06;;;;;;;52.03;25.93;;;;;;;;;;778137;179;624286;-61